COOK1: Arkansas River Nr Coolidge, KS

                                SHEF ID:       COOK1     ARKANSAS R NR COOLIDGE, KS
STATION TYPE:
Regulating: Stage = 8.00, Flow = 2028

PRECIP STAGE STAGE(2) RIV-FLOW WTR-TEMP CONDUCT BAT-LOAD
in ft ft cfs F umho/cm volt
Ccp-Rev Ccp-Rev Ccp-Rev Ccp-Rev Ccp-Rev Ccp-Rev Ccp-Rev
(America/Chicago)
07/31 00:00 0.00 4.71 4.84 422 80.71 3238 12.95
07/31 01:00 0.00 4.72 4.84 424 79.86 3258 12.95
07/31 02:00 0.00 4.71 4.86 422 79.03 3267 12.89
07/31 03:00 0.00 4.73 4.84 427 78.13 3256 12.89
07/31 04:00 0.00 4.72 4.85 424 77.22 3247 12.89
07/31 05:00 0.00 4.73 4.84 427 76.50 3244 12.89
07/31 06:00 0.00 4.72 4.85 424 75.87 3233 12.89
07/31 07:00 0.00 4.72 4.83 424 75.38 3227 12.89
07/31 08:00 0.00 4.73 4.85 427 75.04 3226 12.83
07/31 09:00 0.00 4.70 4.85 419 74.89 3235 12.89
07/31 10:00 0.00 4.70 4.83 419 75.20 3251 13.07
07/31 11:00 0.00 4.70 4.84 419 75.94 3269 13.53
07/31 12:00 0.00 4.71 4.84 422 77.00 3269 13.71
07/31 13:00 0.00 4.72 4.88 424 78.30 3267 13.77
07/31 14:00 0.00 4.70 4.86 419 79.45 3269 13.42
07/31 15:00 0.00 4.70 4.85 419 80.60 3258 13.83
07/31 16:00 0.00 4.74 4.85 430 81.66 3247 13.71
07/31 17:00 0.00 4.70 4.83 419 82.60 3249 13.48
07/31 18:00 0.00 4.69 4.83 416 83.25 3253 13.36
07/31 19:00 0.00 4.66 4.80 408 83.34 3247 13.18
07/31 20:00 0.00 4.65 4.79 405 82.89 3242 13.18
07/31 21:00 0.00 4.68 4.81 413 82.33 3247 13.07
07/31 22:00 0.00 4.68 4.80 413 81.59 3258 13.00
07/31 23:00 ---- ---- ---- ---- ---- ---- ----
Data processed at Thu 01Aug2024 04:30 GMT

Parsing this webpage?

Checkout our new Data API! CWMSDataAPI (CDA)

Timeseries IDs (TSIDs)

TSIDs used from left to right in the data table
COOL.Precip-Inc.Total.1Hour.1Hour.Ccp-Rev
COOL.Stage.Inst.1Hour.0.Ccp-Rev
COOL.Stage-Alt.Inst.1Hour.0.Ccp-Rev
COOL.Flow.Inst.1Hour.0.Ccp-Rev
COOL.Temp-Water.Inst.1Hour.0.Ccp-Rev
COOL.Cond.Inst.1Hour.0.Ccp-Rev
COOL.Volt-Battery Load.Inst.1Hour.0.Ccp-Rev

                            

All information presented herein is the property of the government of the United States of America and may be revised or deleted at any time without prior notice. Dissemination of this information without the expressed written consent of the Public Affairs Office, Tulsa District U.S. Army Corps of Engineers is strictly prohibited. These data are gathered electronically and, as presented, have NOT undergone any form of quality control. These data are NOT guaranteed to be valid or correct.